Time,TemperatureF,DewpointF,PressureIn,WindDirection,WindDirectionDegrees,WindSpeedMPH,WindSpeedGustMPH,Humidity,HourlyPrecipIn,Conditions,Clouds,dailyrainin,SoftwareType,DateUTC
2013-08-01 00:09:00,66.4,43.2,29.98,SW,225,0.0,-999.0,43,-99.99,,,0.00,Acu-Link.com,2013-08-01 05:09:00,
2013-08-01 00:24:00,66.4,37.2,29.99,South,180,0.0,-999.0,34,-99.99,,,0.00,Acu-Link.com,2013-08-01 05:24:00,
2013-08-01 00:39:00,66.4,21.6,29.98,WSW,247,0.0,-999.0,18,-99.99,,,0.00,Acu-Link.com,2013-08-01 05:39:00,
2013-08-01 00:54:00,66.0,23.8,29.98,West,270,0.0,-999.0,20,-99.99,,,0.00,Acu-Link.com,2013-08-01 05:54:00,
2013-08-01 01:09:00,66.0,21.3,29.98,West,270,0.0,-999.0,18,-99.99,,,0.00,Acu-Link.com,2013-08-01 06:09:00,
2013-08-01 01:24:00,66.0,18.5,29.98,SW,225,0.0,-999.0,16,-99.99,,,0.00,Acu-Link.com,2013-08-01 06:24:00,
2013-08-01 01:39:00,66.0,15.5,29.98,South,180,0.0,-999.0,14,-99.99,,,0.00,Acu-Link.com,2013-08-01 06:39:00,
2013-08-01 01:54:00,65.5,15.1,29.97,SW,225,0.0,-999.0,14,-99.99,,,0.00,Acu-Link.com,2013-08-01 06:54:00,
2013-08-01 02:09:00,65.3,13.2,29.97,South,180,1.1,-999.0,13,-99.99,,,0.00,Acu-Link.com,2013-08-01 07:09:00,
2013-08-01 02:25:00,65.1,13.1,29.97,SSW,202,0.0,-999.0,13,-99.99,,,0.00,Acu-Link.com,2013-08-01 07:25:00,
2013-08-01 02:40:00,65.1,14.7,29.98,ENE,67,0.0,-999.0,14,-99.99,,,0.00,Acu-Link.com,2013-08-01 07:40:00,
2013-08-01 02:55:00,64.9,14.6,29.97,WSW,247,0.0,-999.0,14,-99.99,,,0.00,Acu-Link.com,2013-08-01 07:55:00,
2013-08-01 03:10:00,65.3,14.9,29.98,SW,225,2.2,-999.0,14,-99.99,,,0.00,Acu-Link.com,2013-08-01 08:10:00,
2013-08-01 03:25:00,65.1,14.7,29.99,WSW,247,0.0,-999.0,14,-99.99,,,0.00,Acu-Link.com,2013-08-01 08:25:00,
2013-08-01 03:40:00,65.1,16.3,29.99,West,270,2.7,-999.0,15,-99.99,,,0.00,Acu-Link.com,2013-08-01 08:40:00,
2013-08-01 03:55:00,64.9,16.2,29.99,SSW,202,2.7,-999.0,15,-99.99,,,0.00,Acu-Link.com,2013-08-01 08:55:00,
2013-08-01 04:10:00,64.9,16.2,29.98,WSW,247,2.2,-999.0,15,-99.99,,,0.00,Acu-Link.com,2013-08-01 09:10:00,
2013-08-01 04:25:00,64.9,16.2,29.99,West,270,2.2,-999.0,15,-99.99,,,0.00,Acu-Link.com,2013-08-01 09:25:00,
2013-08-01 04:41:00,64.9,14.6,29.99,SW,225,0.0,-999.0,14,-99.99,,,0.00,Acu-Link.com,2013-08-01 09:41:00,
2013-08-01 06:11:00,64.4,12.5,30.00,WSW,247,0.0,-999.0,13,-99.99,,,0.00,Acu-Link.com,2013-08-01 11:11:00,
2013-08-01 06:26:00,64.4,12.5,30.00,WSW,247,1.7,-999.0,13,-99.99,,,0.00,Acu-Link.com,2013-08-01 11:26:00,
2013-08-01 06:41:00,64.8,12.8,30.00,SW,225,1.1,-999.0,13,-99.99,,,0.00,Acu-Link.com,2013-08-01 11:41:00,
2013-08-01 07:12:00,66.9,60.5,29.99,West,270,3.2,-999.0,80,-99.99,,,0.00,Acu-Link.com,2013-08-01 12:12:00,
2013-08-01 07:27:00,69.6,68.4,30.00,SW,225,2.2,-999.0,96,-99.99,,,0.00,Acu-Link.com,2013-08-01 12:27:00,
2013-08-01 07:42:00,72.3,70.8,29.99,WSW,247,2.7,-999.0,95,-99.99,,,0.00,Acu-Link.com,2013-08-01 12:42:00,
2013-08-01 07:57:00,74.1,71.6,30.00,West,270,2.7,-999.0,92,-99.99,,,0.00,Acu-Link.com,2013-08-01 12:57:00,
2013-08-01 08:42:00,80.4,75.1,30.00,SSW,202,3.2,-999.0,84,-99.99,,,0.00,Acu-Link.com,2013-08-01 13:42:00,
2013-08-01 09:12:00,84.4,76.0,30.02,West,270,2.7,-999.0,76,-99.99,,,0.00,Acu-Link.com,2013-08-01 14:12:00,
2013-08-01 09:28:00,87.6,77.0,30.02,SSW,202,2.7,-999.0,71,-99.99,,,0.00,Acu-Link.com,2013-08-01 14:28:00,
2013-08-01 09:58:00,91.4,77.9,30.01,SSW,202,3.2,-999.0,65,-99.99,,,0.00,Acu-Link.com,2013-08-01 14:58:00,
2013-08-01 10:28:00,91.2,77.8,30.01,West,270,3.7,-999.0,65,-99.99,,,0.00,Acu-Link.com,2013-08-01 15:28:00,
2013-08-01 10:43:00,87.8,75.0,30.02,NNE,22,4.2,-999.0,66,-99.99,,,0.00,Acu-Link.com,2013-08-01 15:43:00,
2013-08-01 11:13:00,93.9,76.3,30.01,ENE,67,2.7,-999.0,57,-99.99,,,0.00,Acu-Link.com,2013-08-01 16:13:00,
2013-08-01 11:44:00,95.0,74.6,30.02,NNE,22,2.7,-999.0,52,-99.99,,,0.00,Acu-Link.com,2013-08-01 16:44:00,
2013-08-01 12:14:00,94.6,74.8,30.00,SSW,202,2.7,-999.0,53,-99.99,,,0.00,Acu-Link.com,2013-08-01 17:14:00,
2013-08-01 12:29:00,100.0,76.7,29.99,SSE,157,0.0,-999.0,48,-99.99,,,0.00,Acu-Link.com,2013-08-01 17:29:00,
2013-08-01 12:44:00,97.2,75.4,30.00,SSW,202,2.7,-999.0,50,-99.99,,,0.00,Acu-Link.com,2013-08-01 17:44:00,
2013-08-01 13:14:00,99.7,75.8,29.99,NNE,22,2.2,-999.0,47,-99.99,,,0.00,Acu-Link.com,2013-08-01 18:14:00,
2013-08-01 13:29:00,96.6,74.3,29.99,ESE,112,2.7,-999.0,49,-99.99,,,0.00,Acu-Link.com,2013-08-01 18:29:00,
2013-08-01 13:44:00,98.8,75.6,29.99,NE,45,4.2,-999.0,48,-99.99,,,0.00,Acu-Link.com,2013-08-01 18:44:00,
2013-08-01 14:00:00,101.3,77.3,29.99,ESE,112,1.7,-999.0,47,-99.99,,,0.00,Acu-Link.com,2013-08-01 19:00:00,
2013-08-01 14:15:00,100.0,75.4,29.98,NNW,337,3.2,-999.0,46,-99.99,,,0.00,Acu-Link.com,2013-08-01 19:15:00,
2013-08-01 14:30:00,95.5,73.9,29.98,SSW,202,3.2,-999.0,50,-99.99,,,0.00,Acu-Link.com,2013-08-01 19:30:00,
2013-08-01 14:45:00,99.7,75.2,29.96,South,180,3.2,-999.0,46,-99.99,,,0.00,Acu-Link.com,2013-08-01 19:45:00,
2013-08-01 15:15:00,94.1,73.2,29.96,SSE,157,2.7,-999.0,51,-99.99,,,0.00,Acu-Link.com,2013-08-01 20:15:00,
2013-08-01 15:31:00,99.1,73.3,29.94,SSW,202,3.2,-999.0,44,-99.99,,,0.00,Acu-Link.com,2013-08-01 20:31:00,
2013-08-01 15:46:00,91.9,71.1,29.94,South,180,7.8,-999.0,51,-99.99,,,0.00,Acu-Link.com,2013-08-01 20:46:00,
2013-08-01 16:01:00,93.6,72.1,29.93,SSW,202,4.2,-999.0,50,-99.99,,,0.00,Acu-Link.com,2013-08-01 21:01:00,
2013-08-01 17:01:00,92.7,71.9,29.91,SSW,202,2.7,-999.0,51,-99.99,,,0.00,Acu-Link.com,2013-08-01 22:01:00,
2013-08-01 17:16:00,97.3,71.7,29.91,SSE,157,1.7,-999.0,44,-99.99,,,0.00,Acu-Link.com,2013-08-01 22:16:00,
2013-08-01 17:31:00,94.1,72.0,29.92,South,180,2.7,-999.0,49,-99.99,,,0.00,Acu-Link.com,2013-08-01 22:31:00,
2013-08-01 17:46:00,90.7,71.7,29.91,SSW,202,6.3,-999.0,54,-99.99,,,0.00,Acu-Link.com,2013-08-01 22:46:00,
2013-08-01 18:17:00,86.0,70.5,29.88,West,270,3.7,-999.0,60,-99.99,,,0.00,Acu-Link.com,2013-08-01 23:17:00,
2013-08-01 18:47:00,86.0,71.4,29.89,SSE,157,3.2,-999.0,62,-99.99,,,0.00,Acu-Link.com,2013-08-01 23:47:00,
2013-08-01 19:17:00,86.9,71.3,29.88,SSE,157,3.7,-999.0,60,-99.99,,,0.00,Acu-Link.com,2013-08-02 00:17:00,
2013-08-01 19:47:00,84.2,72.5,29.87,SSE,157,2.2,-999.0,68,-99.99,,,0.00,Acu-Link.com,2013-08-02 00:47:00,
2013-08-01 20:03:00,82.4,73.3,29.88,SSE,157,0.0,-999.0,74,-99.99,,,0.00,Acu-Link.com,2013-08-02 01:03:00,
2013-08-01 20:18:00,79.9,73.2,29.88,SSE,157,0.0,-999.0,80,-99.99,,,0.00,Acu-Link.com,2013-08-02 01:18:00,
2013-08-01 20:33:00,77.9,72.3,29.88,South,180,0.0,-999.0,83,-99.99,,,0.00,Acu-Link.com,2013-08-02 01:33:00,
2013-08-01 20:48:00,77.0,72.5,29.88,SE,135,0.0,-999.0,86,-99.99,,,0.00,Acu-Link.com,2013-08-02 01:48:00,
2013-08-01 21:33:00,75.6,71.8,29.90,SSE,157,0.0,-999.0,88,-99.99,,,0.00,Acu-Link.com,2013-08-02 02:33:00,
2013-08-01 21:48:00,75.0,70.9,29.89,SE,135,1.7,-999.0,87,-99.99,,,0.00,Acu-Link.com,2013-08-02 02:48:00,
2013-08-01 22:03:00,75.2,71.4,29.89,SSE,157,1.7,-999.0,88,-99.99,,,0.00,Acu-Link.com,2013-08-02 03:03:00,
2013-08-01 22:49:00,73.9,71.7,29.89,SSE,157,0.0,-999.0,93,-99.99,,,0.00,Acu-Link.com,2013-08-02 03:49:00,
2013-08-01 23:04:00,74.5,70.7,29.89,West,270,0.0,-999.0,88,-99.99,,,0.00,Acu-Link.com,2013-08-02 04:04:00,
2013-08-01 23:19:00,74.1,70.3,29.90,WSW,247,1.1,-999.0,88,-99.99,,,0.00,Acu-Link.com,2013-08-02 04:19:00,
2013-08-01 23:34:00,73.4,70.9,29.88,SSW,202,2.7,-999.0,92,-99.99,,,0.00,Acu-Link.com,2013-08-02 04:34:00,
2013-08-01 23:49:00,73.8,71.0,29.88,SSW,202,1.7,-999.0,91,-99.99,,,0.00,Acu-Link.com,2013-08-02 04:49:00,